Time;durP1;ratioP1;P1;durP2;ratioP2;P2;SDS_P1;SDS_P2;PMS_P1;PMS_P2;Temp;Humidity;BMP_temperature;BMP_pressure;BME280_temperature;BME280_humidity;BME280_pressure;Samples;Min_cycle;Max_cycle;Signal;HPM_P1;HPM_P2
2023/08/21 00:01:34;;;;;;;3.13;2.83;;;28.60;55.10;;;;;;5116129;28;20058;-83
2023/08/21 00:03:59;;;;;;;4.45;2.80;;;28.60;55.10;;;;;;5115468;28;20032;-83
2023/08/21 00:06:25;;;;;;;2.88;2.58;;;28.50;55.10;;;;;;5110941;28;20525;-83
2023/08/21 00:08:51;;;;;;;3.20;2.65;;;28.50;55.10;;;;;;5115991;28;20116;-83
2023/08/21 00:11:16;;;;;;;3.13;2.67;;;28.50;55.10;;;;;;5115527;28;20227;-82
2023/08/21 00:13:44;;;;;;;3.45;2.67;;;28.50;55.10;;;;;;5115984;28;20020;-83
2023/08/21 00:16:11;;;;;;;4.00;2.70;;;28.50;55.00;;;;;;5115213;28;20592;-82
2023/08/21 00:18:37;;;;;;;3.00;2.70;;;28.50;55.10;;;;;;5115027;28;20056;-81
2023/08/21 00:21:02;;;;;;;4.28;2.80;;;28.40;55.00;;;;;;5115014;28;20100;-81
2023/08/21 00:23:28;;;;;;;3.35;2.72;;;28.40;55.10;;;;;;5115627;28;20019;-83
2023/08/21 00:25:53;;;;;;;3.42;2.45;;;28.40;55.20;;;;;;5115382;28;20458;-82
2023/08/21 00:28:19;;;;;;;3.28;2.60;;;28.40;55.20;;;;;;5114877;28;20040;-83
2023/08/21 00:30:45;;;;;;;3.10;2.80;;;28.40;55.10;;;;;;5115279;28;20089;-82
2023/08/21 00:33:10;;;;;;;2.80;2.53;;;28.40;55.10;;;;;;5114841;28;20027;-82
2023/08/21 00:35:36;;;;;;;2.60;2.40;;;28.40;55.10;;;;;;5123190;27;20047;-82
2023/08/21 00:38:02;;;;;;;3.05;2.75;;;28.50;55.10;;;;;;5114881;28;20035;-82
2023/08/21 00:40:28;;;;;;;2.78;2.58;;;28.50;55.80;;;;;;5115022;28;20034;-82
2023/08/21 00:42:53;;;;;;;2.60;2.40;;;28.50;55.30;;;;;;5114967;28;20027;-82
2023/08/21 00:45:19;;;;;;;3.00;2.70;;;28.50;55.30;;;;;;5115085;28;20041;-83
2023/08/21 00:47:45;;;;;;;4.65;2.67;;;28.50;55.30;;;;;;5115139;28;20068;-82
2023/08/21 00:50:11;;;;;;;3.88;2.83;;;28.50;55.20;;;;;;5114710;28;20399;-82
2023/08/21 00:52:39;;;;;;;3.42;2.63;;;28.50;55.20;;;;;;5112881;28;20028;-83
2023/08/21 00:55:07;;;;;;;2.67;2.45;;;28.50;55.20;;;;;;5114296;28;20027;-84
2023/08/21 00:57:33;;;;;;;3.78;2.90;;;28.50;55.30;;;;;;5112535;28;20045;-83
2023/08/21 01:00:01;;;;;;;3.42;2.83;;;28.50;55.30;;;;;;5114337;28;20481;-83
2023/08/21 01:02:27;;;;;;;3.10;2.70;;;28.50;55.20;;;;;;5106617;28;20366;-83
2023/08/21 01:04:53;;;;;;;3.05;2.72;;;28.50;55.30;;;;;;5114780;28;20022;-83
2023/08/21 01:07:18;;;;;;;3.00;2.70;;;28.50;55.30;;;;;;5114468;28;20462;-83
2023/08/21 01:09:53;;;;;;;3.13;2.80;;;28.50;55.30;;;;;;5114724;28;20038;-83
2023/08/21 01:12:41;;;;;;;2.85;2.55;;;28.40;55.20;;;;;;5114536;28;20042;-83
2023/08/21 01:15:09;;;;;;;3.08;2.78;;;28.50;55.30;;;;;;5112783;28;20031;-82
2023/08/21 01:17:37;;;;;;;2.97;2.67;;;28.40;55.30;;;;;;5113950;28;20046;-83
2023/08/21 01:20:06;;;;;;;2.83;2.63;;;28.40;55.40;;;;;;5114323;28;20443;-82
2023/08/21 01:22:45;;;;;;;3.40;3.10;;;28.40;55.50;;;;;;5114549;28;20031;-83
2023/08/21 01:25:12;;;;;;;3.40;2.80;;;28.40;55.50;;;;;;5114065;28;20069;-82
2023/08/21 01:27:50;;;;;;;3.80;3.00;;;28.40;55.50;;;;;;5112510;28;20381;-82
2023/08/21 01:30:16;;;;;;;3.55;3.20;;;28.40;55.60;;;;;;5114038;28;20385;-83
2023/08/21 01:33:08;;;;;;;3.97;2.90;;;28.40;55.60;;;;;;5114440;28;20058;-83
2023/08/21 01:35:35;;;;;;;3.95;2.92;;;28.40;55.70;;;;;;5107189;28;20024;-83
2023/08/21 01:38:02;;;;;;;4.00;2.90;;;28.40;55.70;;;;;;5113308;28;20436;-83
2023/08/21 01:40:28;;;;;;;2.90;2.63;;;28.40;55.70;;;;;;5117920;27;20029;-84
2023/08/21 01:42:54;;;;;;;3.42;3.00;;;28.40;55.80;;;;;;5114069;28;20080;-83
2023/08/21 01:45:20;;;;;;;3.30;3.00;;;28.40;55.90;;;;;;5113404;28;20059;-83
2023/08/21 01:47:45;;;;;;;3.92;2.80;;;28.40;55.90;;;;;;5112440;28;20024;-83
2023/08/21 01:50:11;;;;;;;3.40;3.10;;;28.40;56.00;;;;;;5113949;28;20047;-82
2023/08/21 01:52:36;;;;;;;3.30;3.00;;;28.40;56.10;;;;;;5113518;28;20094;-82
2023/08/21 01:55:03;;;;;;;3.55;3.20;;;28.40;56.10;;;;;;5113547;28;20023;-83
2023/08/21 01:57:29;;;;;;;3.63;3.05;;;28.40;56.20;;;;;;5112401;28;20032;-83
2023/08/21 01:59:55;;;;;;;3.85;2.97;;;28.40;56.20;;;;;;5113245;28;20031;-83
2023/08/21 02:02:20;;;;;;;3.70;3.33;;;28.40;57.00;;;;;;5113190;28;20027;-83
2023/08/21 02:04:46;;;;;;;3.95;3.10;;;28.40;56.40;;;;;;5113567;28;20381;-83
2023/08/21 02:07:11;;;;;;;3.50;3.20;;;28.30;56.30;;;;;;5113248;28;20424;-82
2023/08/21 02:09:37;;;;;;;3.42;3.13;;;28.30;56.30;;;;;;5114138;28;20050;-85
2023/08/21 02:12:03;;;;;;;3.22;2.92;;;28.30;56.40;;;;;;5113582;28;20028;-82
2023/08/21 02:14:28;;;;;;;3.70;3.30;;;28.30;56.50;;;;;;5113198;28;20408;-83
2023/08/21 02:16:54;;;;;;;3.97;3.58;;;28.30;56.60;;;;;;5113332;28;20114;-83
2023/08/21 02:19:20;;;;;;;4.45;3.17;;;28.30;56.60;;;;;;5111633;28;20141;-84
2023/08/21 02:21:45;;;;;;;3.40;3.10;;;28.30;56.70;;;;;;5112994;28;20027;-82
2023/08/21 02:24:11;;;;;;;4.43;3.30;;;28.30;56.70;;;;;;5113071;28;20039;-83
2023/08/21 02:26:37;;;;;;;4.22;3.50;;;28.30;56.80;;;;;;5113805;28;20051;-83
2023/08/21 02:29:03;;;;;;;4.03;3.58;;;28.30;56.90;;;;;;5113145;28;20054;-82
2023/08/21 02:31:29;;;;;;;4.38;3.38;;;28.30;56.90;;;;;;5113342;28;20042;-83
2023/08/21 02:33:54;;;;;;;5.95;3.60;;;28.30;57.00;;;;;;5112987;28;20401;-83
2023/08/21 02:36:20;;;;;;;4.22;3.83;;;28.30;57.00;;;;;;5113514;28;20032;-82
2023/08/21 02:38:46;;;;;;;4.07;3.42;;;28.30;57.10;;;;;;5112906;28;20024;-84
2023/08/21 02:41:11;;;;;;;4.43;3.70;;;28.20;57.10;;;;;;5112658;28;20058;-83
2023/08/21 02:43:37;;;;;;;4.15;3.75;;;28.20;57.20;;;;;;5113314;28;20034;-83
2023/08/21 02:46:03;;;;;;;3.88;3.47;;;28.20;57.30;;;;;;5115994;28;20123;-82
2023/08/21 02:48:28;;;;;;;4.07;3.42;;;28.20;57.40;;;;;;5112159;28;20413;-83
2023/08/21 02:50:54;;;;;;;4.00;3.60;;;28.20;57.40;;;;;;5112782;28;20042;-82
2023/08/21 02:53:20;;;;;;;4.93;3.95;;;28.20;57.50;;;;;;5112742;28;20032;-83
2023/08/21 02:55:46;;;;;;;4.53;3.90;;;28.10;57.50;;;;;;5111785;28;20024;-83
2023/08/21 02:58:11;;;;;;;4.85;3.60;;;28.10;57.70;;;;;;5113172;28;20063;-83
2023/08/21 03:00:37;;;;;;;4.10;3.70;;;28.10;57.70;;;;;;5112975;28;20092;-82
2023/08/21 03:03:04;;;;;;;4.13;3.72;;;28.00;57.70;;;;;;5112745;28;20447;-82
2023/08/21 03:05:29;;;;;;;5.53;4.30;;;28.00;57.80;;;;;;5113047;28;20027;-82
2023/08/21 03:07:55;;;;;;;4.60;3.85;;;28.00;57.90;;;;;;5112844;28;20054;-82
2023/08/21 03:10:22;;;;;;;4.25;3.85;;;28.00;57.90;;;;;;5112485;28;20039;-82
2023/08/21 03:12:48;;;;;;;3.78;3.42;;;28.00;58.10;;;;;;5113495;28;20474;-82
2023/08/21 03:15:14;;;;;;;4.45;3.70;;;28.00;58.10;;;;;;5114745;28;20024;-82
2023/08/21 03:17:40;;;;;;;5.55;3.92;;;28.00;58.20;;;;;;5115797;28;20438;-83
2023/08/21 03:20:07;;;;;;;7.82;4.15;;;27.90;58.10;;;;;;5116541;28;20466;-82
2023/08/21 03:22:33;;;;;;;5.53;3.70;;;27.90;58.20;;;;;;5116893;28;20066;-84
2023/08/21 03:24:58;;;;;;;4.22;3.83;;;27.90;58.30;;;;;;5117298;28;20051;-83
2023/08/21 03:27:24;;;;;;;4.32;3.92;;;27.90;58.30;;;;;;5117016;28;20023;-83
2023/08/21 03:29:50;;;;;;;4.82;4.05;;;27.90;58.40;;;;;;5116365;28;20027;-82
2023/08/21 03:32:17;;;;;;;4.00;3.60;;;27.80;58.30;;;;;;5117008;28;20023;-83
2023/08/21 03:34:43;;;;;;;4.80;4.30;;;27.80;58.40;;;;;;5116383;28;20103;-82
2023/08/21 03:37:09;;;;;;;4.07;3.67;;;27.80;58.50;;;;;;5116271;28;20106;-83
2023/08/21 03:39:34;;;;;;;4.90;4.30;;;27.80;58.60;;;;;;5116814;28;20063;-83
2023/08/21 03:42:00;;;;;;;5.07;4.50;;;27.80;58.70;;;;;;5116828;28;20028;-83
2023/08/21 03:44:25;;;;;;;5.00;4.40;;;27.80;58.80;;;;;;5117394;28;20106;-83
2023/08/21 03:46:51;;;;;;;4.90;4.32;;;27.80;58.90;;;;;;5115983;28;20031;-82
2023/08/21 03:49:18;;;;;;;5.32;4.32;;;27.80;58.90;;;;;;5116227;28;20045;-83
2023/08/21 03:51:43;;;;;;;4.57;4.05;;;27.80;59.00;;;;;;5115910;28;20430;-84
2023/08/21 03:54:10;;;;;;;4.78;4.13;;;27.80;59.00;;;;;;5116244;28;20028;-83
2023/08/21 03:56:36;;;;;;;4.18;3.78;;;27.80;58.90;;;;;;5116698;28;20076;-83
2023/08/21 03:59:02;;;;;;;5.13;4.00;;;27.80;58.90;;;;;;5116479;28;20039;-83
2023/08/21 04:01:27;;;;;;;4.25;3.65;;;27.80;58.90;;;;;;5114562;28;20031;-83
2023/08/21 04:03:53;;;;;;;4.40;3.70;;;27.90;58.90;;;;;;5114591;28;20023;-82
2023/08/21 04:06:19;;;;;;;4.25;3.83;;;27.90;58.80;;;;;;5115727;28;20039;-83
2023/08/21 04:08:45;;;;;;;4.70;4.00;;;27.90;58.90;;;;;;5114314;28;20413;-83
2023/08/21 04:11:10;;;;;;;4.28;3.60;;;27.90;58.90;;;;;;5114641;27;20031;-83
2023/08/21 04:13:36;;;;;;;4.28;3.78;;;27.90;58.90;;;;;;5115142;28;20062;-80
2023/08/21 04:16:01;;;;;;;5.13;3.80;;;27.90;58.90;;;;;;5115737;28;20138;-78
2023/08/21 04:18:27;;;;;;;4.00;3.60;;;28.00;59.00;;;;;;5114877;28;20107;-81
2023/08/21 04:20:53;;;;;;;5.32;3.78;;;28.00;58.90;;;;;;5115959;28;20401;-87
2023/08/21 04:23:18;;;;;;;4.40;3.83;;;28.10;58.90;;;;;;5115849;28;20024;-83
2023/08/21 04:25:44;;;;;;;4.53;3.80;;;28.10;58.90;;;;;;5107027;28;20385;-83
2023/08/21 04:28:09;;;;;;;6.72;4.20;;;28.10;58.90;;;;;;5094265;28;20038;-85
2023/08/21 04:30:35;;;;;;;4.30;3.90;;;28.10;58.90;;;;;;5108250;28;20035;-84
2023/08/21 04:33:01;;;;;;;4.63;4.10;;;28.10;58.90;;;;;;5115884;28;20027;-78
2023/08/21 04:35:26;;;;;;;4.55;3.90;;;28.00;58.90;;;;;;5117034;28;20027;-77
2023/08/21 04:37:52;;;;;;;4.22;3.83;;;28.00;59.00;;;;;;5113767;27;20069;-75
2023/08/21 04:40:20;;;;;;;8.75;4.05;;;28.00;59.10;;;;;;5115044;28;20492;-76
2023/08/21 04:42:46;;;;;;;5.63;4.28;;;28.10;59.20;;;;;;5113670;28;20069;-74
2023/08/21 04:45:12;;;;;;;4.90;4.20;;;28.10;59.20;;;;;;5115017;28;20031;-74
2023/08/21 04:47:37;;;;;;;5.47;4.10;;;28.00;59.20;;;;;;5114516;28;20384;-74
2023/08/21 04:50:03;;;;;;;5.75;4.25;;;28.00;59.30;;;;;;5115171;28;20024;-74
2023/08/21 04:52:29;;;;;;;5.03;4.10;;;28.00;59.40;;;;;;5115385;28;20042;-74
2023/08/21 04:54:55;;;;;;;5.15;4.65;;;28.00;59.50;;;;;;5115439;28;20019;-74
2023/08/21 04:57:21;;;;;;;5.45;4.45;;;28.00;59.60;;;;;;5115305;28;20389;-74
2023/08/21 04:59:47;;;;;;;4.40;4.00;;;27.90;59.60;;;;;;5114667;28;20031;-74
2023/08/21 05:02:12;;;;;;;6.72;4.20;;;27.90;59.70;;;;;;5113620;28;20069;-74
2023/08/21 05:04:38;;;;;;;4.80;4.20;;;27.90;59.80;;;;;;5114252;28;20555;-77
2023/08/21 05:07:04;;;;;;;4.97;3.72;;;27.90;59.90;;;;;;5115329;28;20481;-78
2023/08/21 05:09:30;;;;;;;4.90;4.40;;;27.90;59.90;;;;;;5115258;28;20062;-75
2023/08/21 05:11:56;;;;;;;7.50;3.88;;;27.90;60.00;;;;;;5114729;28;20034;-76
2023/08/21 05:14:22;;;;;;;4.50;4.10;;;28.00;60.00;;;;;;5113035;28;20023;-73
2023/08/21 05:16:49;;;;;;;4.47;4.07;;;28.00;60.00;;;;;;5114507;28;20068;-73
2023/08/21 05:19:15;;;;;;;4.85;4.30;;;28.00;60.00;;;;;;5112431;28;20044;-74
2023/08/21 05:21:40;;;;;;;5.63;4.50;;;28.00;60.00;;;;;;5112073;28;20027;-73
2023/08/21 05:24:06;;;;;;;5.15;4.10;;;28.00;60.00;;;;;;5113807;28;20107;-75
2023/08/21 05:26:32;;;;;;;4.47;3.90;;;28.00;60.50;;;;;;5112624;28;20028;-74
2023/08/21 05:28:57;;;;;;;5.72;4.03;;;28.00;60.00;;;;;;5111783;28;20027;-71
2023/08/21 05:31:23;;;;;;;4.47;3.88;;;28.10;60.10;;;;;;5112936;28;20051;-75
2023/08/21 05:33:49;;;;;;;4.63;3.75;;;28.10;60.10;;;;;;5111638;28;20043;-75
2023/08/21 05:36:14;;;;;;;4.60;4.20;;;28.10;60.10;;;;;;5113893;28;20055;-75
2023/08/21 05:38:40;;;;;;;4.35;3.92;;;28.00;60.00;;;;;;5112187;28;20027;-77
2023/08/21 05:41:06;;;;;;;5.72;3.83;;;28.00;60.10;;;;;;5110355;28;20027;-78
2023/08/21 05:43:32;;;;;;;4.20;3.70;;;28.00;60.10;;;;;;5113352;28;20020;-78
2023/08/21 05:45:57;;;;;;;4.40;3.80;;;28.00;60.10;;;;;;5113043;28;20031;-75
2023/08/21 05:48:23;;;;;;;4.40;4.00;;;28.00;60.20;;;;;;5113308;28;20643;-77
2023/08/21 05:50:52;;;;;;;4.28;3.88;;;27.90;60.20;;;;;;5113136;28;20019;-78
2023/08/21 05:53:18;;;;;;;5.30;4.53;;;27.90;60.20;;;;;;5111241;28;20034;-76
2023/08/21 05:55:44;;;;;;;5.25;4.35;;;27.90;60.30;;;;;;5112776;28;20030;-76
2023/08/21 05:58:10;;;;;;;5.28;4.22;;;27.80;60.30;;;;;;5111552;28;20032;-77
2023/08/21 06:00:38;;;;;;;4.03;3.63;;;27.80;60.40;;;;;;5113216;28;20024;-78
2023/08/21 06:03:03;;;;;;;4.82;4.15;;;27.80;60.50;;;;;;5112321;28;20453;-76
2023/08/21 06:05:29;;;;;;;5.15;4.32;;;27.80;60.50;;;;;;5113088;28;20036;-76
2023/08/21 06:07:55;;;;;;;4.45;4.05;;;27.80;60.60;;;;;;5112734;28;20038;-75
2023/08/21 06:10:20;;;;;;;4.45;4.05;;;27.80;60.70;;;;;;5111508;28;20044;-70
2023/08/21 06:12:47;;;;;;;5.05;4.40;;;27.80;60.80;;;;;;5111758;28;20095;-67
2023/08/21 06:15:13;;;;;;;4.65;4.20;;;27.80;60.90;;;;;;5113020;28;20534;-68
2023/08/21 06:17:40;;;;;;;4.90;4.00;;;27.80;61.00;;;;;;5112525;28;20108;-69
2023/08/21 06:20:08;;;;;;;5.90;4.70;;;27.80;61.00;;;;;;5111337;28;20075;-67
2023/08/21 06:22:34;;;;;;;5.65;4.20;;;27.80;61.00;;;;;;5113339;28;20030;-67
2023/08/21 06:25:00;;;;;;;4.35;3.95;;;27.90;61.10;;;;;;5112616;28;20028;-69
2023/08/21 06:27:25;;;;;;;5.00;4.55;;;27.90;61.20;;;;;;5111521;28;20501;-69
2023/08/21 06:29:51;;;;;;;4.45;4.05;;;27.90;61.20;;;;;;5110991;28;20469;-68
2023/08/21 06:32:17;;;;;;;5.20;4.70;;;27.90;61.10;;;;;;5111696;28;20055;-69
2023/08/21 06:34:42;;;;;;;5.13;4.63;;;28.00;61.20;;;;;;5112968;28;20020;-70
2023/08/21 06:37:09;;;;;;;4.85;4.32;;;28.00;61.30;;;;;;5112038;28;20063;-69
2023/08/21 06:39:35;;;;;;;4.10;3.70;;;28.00;61.30;;;;;;5110771;28;20032;-70
2023/08/21 06:42:00;;;;;;;6.05;4.25;;;28.10;61.30;;;;;;5106002;28;20106;-82
2023/08/21 06:44:26;;;;;;;4.70;4.30;;;28.10;61.30;;;;;;5111523;28;20481;-83
2023/08/21 06:46:52;;;;;;;5.07;4.57;;;28.20;61.50;;;;;;5112965;28;20510;-74
2023/08/21 06:49:18;;;;;;;5.65;5.15;;;28.20;61.30;;;;;;5113779;28;20040;-74
2023/08/21 06:51:43;;;;;;;6.15;5.32;;;28.20;61.10;;;;;;5116771;28;20031;-74
2023/08/21 06:54:09;;;;;;;9.57;7.13;;;28.30;61.10;;;;;;5116497;28;20023;-71
2023/08/21 06:56:35;;;;;;;7.50;6.78;;;28.40;61.20;;;;;;5116763;28;20042;-76
2023/08/21 06:59:01;;;;;;;7.53;6.03;;;28.30;61.10;;;;;;5116578;28;20554;-79
2023/08/21 07:01:27;;;;;;;6.88;5.78;;;28.40;61.00;;;;;;5117065;28;20023;-78
2023/08/21 07:03:53;;;;;;;6.13;5.53;;;28.40;61.00;;;;;;5116899;28;20457;-76
2023/08/21 07:06:19;;;;;;;6.72;5.00;;;28.40;60.90;;;;;;5116826;28;20031;-80
2023/08/21 07:08:45;;;;;;;5.32;4.82;;;28.40;60.90;;;;;;5115946;28;20050;-83
2023/08/21 07:11:12;;;;;;;4.55;4.15;;;28.50;60.90;;;;;;5116405;28;20421;-78
2023/08/21 07:13:37;;;;;;;6.15;4.40;;;28.50;60.90;;;;;;5109933;28;20363;-82
2023/08/21 07:16:05;;;;;;;4.32;3.92;;;28.50;60.60;;;;;;5116062;28;20114;-84
2023/08/21 07:18:33;;;;;;;4.45;4.05;;;28.50;60.60;;;;;;5116777;28;20359;-79
2023/08/21 07:20:59;;;;;;;5.32;4.65;;;28.50;60.60;;;;;;5115927;28;20052;-74
2023/08/21 07:23:25;;;;;;;5.22;4.72;;;28.60;60.70;;;;;;5115751;28;20075;-77
2023/08/21 07:25:51;;;;;;;4.78;4.38;;;28.60;60.60;;;;;;5115191;28;20081;-79
2023/08/21 07:28:17;;;;;;;5.97;5.38;;;28.60;60.60;;;;;;5115778;28;20455;-85
2023/08/21 07:30:42;;;;;;;5.15;4.65;;;28.60;60.60;;;;;;5116537;28;20071;-84
2023/08/21 07:33:08;;;;;;;6.22;4.85;;;28.60;60.70;;;;;;5114694;28;20028;-86
2023/08/21 07:35:35;;;;;;;5.28;4.78;;;28.60;60.80;;;;;;5115758;28;20031;-79
2023/08/21 07:38:01;;;;;;;5.60;5.03;;;28.60;60.80;;;;;;5115943;28;20059;-83
2023/08/21 07:40:27;;;;;;;6.47;4.55;;;28.60;60.90;;;;;;5116014;28;20039;-82
2023/08/21 07:42:53;;;;;;;4.80;4.30;;;28.60;60.80;;;;;;5116294;28;20377;-83
2023/08/21 07:45:19;;;;;;;6.43;5.47;;;28.70;60.80;;;;;;5114794;28;20034;-77
2023/08/21 07:47:44;;;;;;;4.85;4.35;;;28.70;60.80;;;;;;5115710;28;20019;-80
2023/08/21 07:50:10;;;;;;;4.80;3.90;;;28.80;60.80;;;;;;5112021;28;20043;-83
2023/08/21 07:52:36;;;;;;;4.40;4.00;;;28.80;60.60;;;;;;5109428;27;20023;-77
2023/08/21 07:55:02;;;;;;;5.55;4.55;;;28.90;60.70;;;;;;5109008;28;20060;-70
2023/08/21 07:57:29;;;;;;;4.75;4.20;;;28.90;61.40;;;;;;5110549;28;20032;-69
2023/08/21 07:59:55;;;;;;;4.70;4.30;;;28.90;60.80;;;;;;5108978;28;20035;-69
2023/08/21 08:02:21;;;;;;;4.50;4.10;;;28.90;60.80;;;;;;5109330;28;20042;-72
2023/08/21 08:04:47;;;;;;;5.05;4.55;;;28.90;60.80;;;;;;5114514;28;20023;-70
2023/08/21 08:07:12;;;;;;;4.80;4.40;;;28.90;60.80;;;;;;5110005;28;20020;-72
2023/08/21 08:09:39;;;;;;;4.55;4.15;;;28.90;60.80;;;;;;5115728;27;20057;-75
2023/08/21 08:12:05;;;;;;;8.35;5.07;;;28.90;60.80;;;;;;5110883;28;20119;-74
2023/08/21 08:14:31;;;;;;;5.97;5.38;;;28.90;60.80;;;;;;5111872;28;20028;-74
2023/08/21 08:16:56;;;;;;;5.20;4.70;;;28.90;60.80;;;;;;5109848;28;20023;-78
2023/08/21 08:19:22;;;;;;;4.88;4.30;;;28.80;60.80;;;;;;5105904;28;20118;-76
2023/08/21 08:21:48;;;;;;;4.57;4.18;;;28.80;60.80;;;;;;5105070;28;20127;-73
2023/08/21 08:24:13;;;;;;;5.32;4.50;;;28.90;60.90;;;;;;5109822;28;20031;-73
2023/08/21 08:26:40;;;;;;;4.80;4.40;;;28.90;60.90;;;;;;5109828;28;20032;-73
2023/08/21 08:29:06;;;;;;;4.47;4.07;;;28.90;60.80;;;;;;5104382;28;20366;-73
2023/08/21 08:31:31;;;;;;;5.50;4.40;;;28.90;60.70;;;;;;5114057;28;20080;-73
2023/08/21 08:33:57;;;;;;;4.85;4.38;;;28.90;60.60;;;;;;5107179;28;20030;-85
2023/08/21 08:36:23;;;;;;;9.10;4.75;;;29.00;60.50;;;;;;5112966;27;20374;-74
2023/08/21 08:38:49;;;;;;;5.40;4.90;;;29.00;60.50;;;;;;5108811;28;20019;-75
2023/08/21 08:41:43;;;;;;;5.85;4.68;;;29.00;60.40;;;;;;5108637;28;20031;-73
2023/08/21 08:44:12;;;;;;;4.88;4.45;;;29.00;60.40;;;;;;5109685;28;20397;-73
2023/08/21 08:46:38;;;;;;;4.55;4.15;;;29.00;60.30;;;;;;5110389;27;20063;-73
2023/08/21 08:49:04;;;;;;;4.50;4.10;;;29.00;60.30;;;;;;5109134;28;20059;-74
2023/08/21 08:51:34;;;;;;;4.30;3.90;;;29.10;60.40;;;;;;5109942;28;20389;-72
2023/08/21 08:54:00;;;;;;;5.63;3.90;;;29.10;60.20;;;;;;5112807;27;20380;-73
2023/08/21 08:56:26;;;;;;;4.55;3.70;;;29.20;60.10;;;;;;5109217;28;20031;-73
2023/08/21 08:58:51;;;;;;;3.85;3.55;;;29.20;60.00;;;;;;5109343;28;20039;-73
2023/08/21 09:01:17;;;;;;;3.83;3.42;;;29.20;59.90;;;;;;5109229;28;20023;-72
2023/08/21 09:03:44;;;;;;;3.40;3.08;;;29.30;60.00;;;;;;5108765;28;20471;-73
2023/08/21 09:06:10;;;;;;;3.92;3.50;;;29.30;60.40;;;;;;5109949;28;20658;-74
2023/08/21 09:08:35;;;;;;;4.05;3.65;;;29.40;59.70;;;;;;5110300;28;20028;-73
2023/08/21 09:11:05;;;;;;;4.22;3.40;;;29.40;59.70;;;;;;5108645;28;20039;-73
2023/08/21 09:13:32;;;;;;;3.42;3.13;;;29.40;59.60;;;;;;5107703;28;20023;-73
2023/08/21 09:15:59;;;;;;;3.75;3.45;;;29.40;59.50;;;;;;5110017;28;20385;-73
2023/08/21 09:18:25;;;;;;;4.00;3.50;;;29.40;59.40;;;;;;5109359;28;20400;-73
2023/08/21 09:20:50;;;;;;;4.13;3.42;;;29.50;59.40;;;;;;5108973;28;20048;-72
2023/08/21 09:23:17;;;;;;;3.70;3.40;;;29.40;59.20;;;;;;5111244;28;20031;-73
2023/08/21 09:25:48;;;;;;;4.35;3.40;;;29.50;59.20;;;;;;5109455;28;20393;-74
2023/08/21 09:28:14;;;;;;;3.88;3.20;;;29.50;59.10;;;;;;5111779;27;20027;-74
2023/08/21 09:30:54;;;;;;;3.70;3.40;;;29.50;59.00;;;;;;5108269;28;20036;-73
2023/08/21 09:33:22;;;;;;;3.70;3.40;;;29.60;59.00;;;;;;5108331;28;20031;-73
2023/08/21 09:35:48;;;;;;;3.40;3.10;;;29.60;58.90;;;;;;5110496;28;20043;-73
2023/08/21 09:38:14;;;;;;;3.65;2.75;;;29.60;58.80;;;;;;5108375;28;20023;-74
2023/08/21 09:40:41;;;;;;;3.30;3.00;;;29.70;58.70;;;;;;5108696;28;20036;-74
2023/08/21 09:43:10;;;;;;;3.50;3.20;;;29.70;58.70;;;;;;5109083;28;20489;-74
2023/08/21 09:45:37;;;;;;;3.88;2.80;;;29.70;58.30;;;;;;5110367;28;20024;-75
2023/08/21 09:48:04;;;;;;;3.75;3.10;;;29.80;58.30;;;;;;5108609;28;20038;-71
2023/08/21 09:50:30;;;;;;;3.05;2.72;;;29.80;58.20;;;;;;5109456;28;20104;-75
2023/08/21 09:52:58;;;;;;;2.95;2.75;;;29.90;58.20;;;;;;5110308;28;20503;-73
2023/08/21 09:55:26;;;;;;;3.38;2.72;;;29.90;58.10;;;;;;5109940;28;20160;-75
2023/08/21 09:57:58;;;;;;;3.30;2.97;;;29.90;58.00;;;;;;5109767;28;20027;-73
2023/08/21 10:00:26;;;;;;;2.92;2.72;;;29.90;58.00;;;;;;5109132;28;20407;-73
2023/08/21 10:02:54;;;;;;;2.90;2.70;;;29.90;58.00;;;;;;5109296;28;20389;-74
2023/08/21 10:05:20;;;;;;;4.38;2.85;;;29.90;57.90;;;;;;5108572;28;20407;-74
2023/08/21 10:07:48;;;;;;;3.55;2.80;;;29.90;57.90;;;;;;5109150;28;20032;-74
2023/08/21 10:10:15;;;;;;;3.70;3.40;;;30.00;57.90;;;;;;5107491;28;20035;-73
2023/08/21 10:12:41;;;;;;;3.03;2.80;;;30.00;57.90;;;;;;5108835;28;20027;-74
2023/08/21 10:15:09;;;;;;;3.40;3.10;;;30.10;57.80;;;;;;5109183;28;20359;-74
2023/08/21 10:17:36;;;;;;;3.38;3.08;;;30.10;57.70;;;;;;5109025;28;20020;-73
2023/08/21 10:20:06;;;;;;;4.45;3.22;;;30.10;57.60;;;;;;5109124;28;20550;-74
2023/08/21 10:22:41;;;;;;;4.57;3.33;;;30.20;57.60;;;;;;5108789;28;20023;-73
2023/08/21 10:25:22;;;;;;;3.67;3.38;;;30.20;57.70;;;;;;5112309;28;20069;-74
2023/08/21 10:27:53;;;;;;;3.13;2.83;;;30.20;57.60;;;;;;5114725;28;20034;-74
2023/08/21 10:30:29;;;;;;;3.67;3.38;;;30.30;57.70;;;;;;5114508;28;20035;-74
2023/08/21 10:32:58;;;;;;;3.13;2.92;;;30.30;57.50;;;;;;5116024;27;20031;-73
2023/08/21 10:35:29;;;;;;;3.30;3.00;;;30.30;57.60;;;;;;5115164;28;20169;-73
2023/08/21 10:38:18;;;;;;;3.33;2.70;;;30.30;57.50;;;;;;5115648;28;20112;-75
2023/08/21 10:41:07;;;;;;;4.53;2.92;;;30.30;57.30;;;;;;5104991;28;20070;-73
2023/08/21 10:43:44;;;;;;;2.92;2.72;;;30.40;57.40;;;;;;5123185;27;20053;-73
2023/08/21 10:46:10;;;;;;;3.00;2.70;;;30.40;57.30;;;;;;5114414;28;20119;-73
2023/08/21 10:48:37;;;;;;;3.00;2.80;;;30.40;57.30;;;;;;5116356;28;20108;-72
2023/08/21 10:51:07;;;;;;;3.00;2.80;;;30.30;57.20;;;;;;5114980;28;20070;-72
2023/08/21 10:53:34;;;;;;;3.17;2.72;;;30.40;57.30;;;;;;5115296;28;20031;-73
2023/08/21 10:56:03;;;;;;;3.72;3.00;;;30.40;57.30;;;;;;5115959;27;20085;-75
2023/08/21 10:58:41;;;;;;;2.80;2.60;;;30.40;57.20;;;;;;5113859;28;20039;-73
2023/08/21 11:01:07;;;;;;;3.47;3.17;;;30.40;57.10;;;;;;5114884;28;20024;-73
2023/08/21 11:03:33;;;;;;;3.13;2.92;;;30.40;56.80;;;;;;5115307;28;20039;-72
2023/08/21 11:06:06;;;;;;;3.60;3.30;;;30.40;56.70;;;;;;5116213;28;20096;-73
2023/08/21 11:08:33;;;;;;;3.35;3.00;;;30.50;56.60;;;;;;5115217;28;20023;-73
2023/08/21 11:11:00;;;;;;;3.65;3.17;;;30.50;56.70;;;;;;5113841;28;20112;-73
2023/08/21 11:13:26;;;;;;;3.40;3.10;;;30.50;56.70;;;;;;5114049;28;20103;-73
2023/08/21 11:16:02;;;;;;;2.97;2.78;;;30.50;56.60;;;;;;5115357;27;20110;-74
2023/08/21 11:18:38;;;;;;;2.70;2.50;;;30.50;56.50;;;;;;5114241;28;20031;-74
2023/08/21 11:21:11;;;;;;;2.80;2.60;;;30.50;56.50;;;;;;5113729;28;20051;-75
2023/08/21 11:23:41;;;;;;;2.92;2.72;;;30.50;56.50;;;;;;5115521;28;20102;-74
2023/08/21 11:26:11;;;;;;;2.90;2.70;;;30.60;56.50;;;;;;5114234;28;20059;-72
2023/08/21 11:28:37;;;;;;;2.60;2.40;;;30.60;56.40;;;;;;5114216;28;20080;-73
2023/08/21 11:31:04;;;;;;;2.78;2.58;;;30.60;56.30;;;;;;5115342;28;20109;-72
2023/08/21 11:33:31;;;;;;;3.25;2.67;;;30.60;56.10;;;;;;5114804;28;20023;-73
2023/08/21 11:35:58;;;;;;;2.53;2.33;;;30.60;56.00;;;;;;5112381;28;20031;-73
2023/08/21 11:38:26;;;;;;;2.78;2.58;;;30.60;56.00;;;;;;5112480;28;20369;-74
2023/08/21 11:40:53;;;;;;;2.90;2.63;;;30.70;56.00;;;;;;5110815;28;20027;-73
2023/08/21 11:43:19;;;;;;;2.75;2.55;;;30.70;56.00;;;;;;5110203;28;20059;-74
2023/08/21 11:45:46;;;;;;;2.72;2.53;;;30.70;55.80;;;;;;5111536;28;20030;-73
2023/08/21 11:48:12;;;;;;;2.90;2.70;;;30.70;55.70;;;;;;5111664;28;20036;-73
2023/08/21 11:50:38;;;;;;;2.88;2.67;;;30.70;55.50;;;;;;5110295;28;20051;-73
2023/08/21 11:53:05;;;;;;;2.75;2.55;;;30.70;55.40;;;;;;5110072;28;20500;-73
2023/08/21 11:55:31;;;;;;;3.10;2.80;;;30.80;55.40;;;;;;5110740;28;20120;-73
2023/08/21 11:57:57;;;;;;;2.88;2.60;;;30.80;55.40;;;;;;5110549;28;20031;-73
2023/08/21 12:00:28;;;;;;;4.68;3.10;;;30.90;55.40;;;;;;5110812;28;20823;-73
2023/08/21 12:03:06;;;;;;;4.43;2.80;;;30.90;55.40;;;;;;5112043;28;20027;-74
2023/08/21 12:05:33;;;;;;;2.67;2.47;;;31.00;55.30;;;;;;5112119;28;20031;-74
2023/08/21 12:07:58;;;;;;;2.60;2.40;;;31.00;55.30;;;;;;5111177;28;20113;-74
2023/08/21 12:10:28;;;;;;;3.20;2.90;;;31.10;55.30;;;;;;5111455;28;20191;-74
2023/08/21 12:12:54;;;;;;;2.92;2.72;;;31.10;55.30;;;;;;5109663;28;20381;-73
2023/08/21 12:15:20;;;;;;;3.03;2.83;;;31.10;55.20;;;;;;5110064;28;20034;-73
2023/08/21 12:17:46;;;;;;;2.72;2.53;;;31.20;55.10;;;;;;5111184;28;20032;-73
2023/08/21 12:20:11;;;;;;;2.83;2.60;;;31.30;55.20;;;;;;5109888;28;20512;-74
2023/08/21 12:22:38;;;;;;;2.80;2.60;;;31.50;55.10;;;;;;5111415;28;20489;-74
2023/08/21 12:25:05;;;;;;;3.08;2.78;;;31.50;54.90;;;;;;5109763;28;20027;-74
2023/08/21 12:27:31;;;;;;;2.60;2.40;;;31.60;54.90;;;;;;5109847;28;20047;-74
2023/08/21 12:29:56;;;;;;;2.60;2.40;;;31.70;54.80;;;;;;5110913;28;20378;-75
2023/08/21 12:32:22;;;;;;;2.85;2.65;;;31.80;54.70;;;;;;5109498;28;20026;-74
2023/08/21 12:34:48;;;;;;;3.63;2.60;;;31.80;54.50;;;;;;5109868;28;20334;-74
2023/08/21 12:37:13;;;;;;;3.00;2.80;;;31.70;54.40;;;;;;5111937;28;20032;-74
2023/08/21 12:39:39;;;;;;;3.35;2.70;;;31.70;54.40;;;;;;5123606;27;20032;-74
2023/08/21 12:42:05;;;;;;;3.17;2.88;;;31.60;54.50;;;;;;5110788;28;20020;-74
2023/08/21 12:44:31;;;;;;;2.80;2.60;;;31.50;54.60;;;;;;5111062;28;20030;-73
2023/08/21 12:46:56;;;;;;;3.05;2.78;;;31.40;54.70;;;;;;5109507;28;20116;-74